Pos Yokohama — DSOU4 — position and weather

sailwx.info

Track history (hours):
 
Tides and Currents Weather Stations Pressure Air Temp Water Temp Dewpoint Dewpoint Depression Visibility Wind Speed Wind Dir Waves Ship Positions

Pos Yokohama

Last reported at 2018-Jun-20 16:17 UTC. Time now 2018-Jun-21 04:47 UTC.
Position N 31°15' E 121°57'.

Length 144 m; draft 7.1 m.

Type: Cargo ship. MMSI: 440349000.

Date/timePositionNaut miles runAvg speedWind from/ knotsBaromVisibWave heightAir tempDewpointWater temp
2018-Jun-20 16:17N 31°15' E 121°57'414.9
2018-Jun-20 16:00N 31°16' E 121°52'2 0.2
2018-Jun-20 05:50N 31°16' E 121°54'612.7
2018-Jun-20 05:19N 31°15' E 122°01'1111.4
2018-Jun-20 04:23N 31°10' E 122°12'411.4
2018-Jun-20 04:00N 31°07' E 122°16'  
2018-Jun-15 22:36N 35°03' E 129°07'110.8
2018-Jun-15 22:29N 35°04' E 129°07'2 5.1
2018-Jun-15 21:59N 35°06' E 129°05'0 0.1
2018-Jun-15 21:29N 35°06' E 129°05'0 0.0
2018-Jun-15 20:59N 35°06' E 129°05'0 0.0
2018-Jun-15 20:29N 35°06' E 129°05'0 0.0
2018-Jun-15 19:59N 35°06' E 129°05'0 0.0
2018-Jun-15 19:29N 35°06' E 129°05'0 0.0
2018-Jun-15 18:59N 35°06' E 129°05'0 0.0
2018-Jun-15 18:29N 35°06' E 129°05'0 0.0
2018-Jun-15 17:59N 35°06' E 129°05'0 0.0
2018-Jun-15 17:29N 35°06' E 129°05'0 0.0
2018-Jun-15 16:59N 35°06' E 129°05'0 0.0
2018-Jun-15 16:29N 35°06' E 129°05'0 0.0
2018-Jun-15 15:59N 35°06' E 129°05'0 0.0
2018-Jun-15 15:29N 35°06' E 129°05'0 0.0
2018-Jun-15 14:59N 35°06' E 129°05'0 0.0
2018-Jun-15 14:29N 35°06' E 129°05'0 0.0
2018-Jun-15 13:59N 35°06' E 129°05'0 0.0
2018-Jun-15 13:29N 35°06' E 129°05'0 0.0
2018-Jun-15 12:59N 35°06' E 129°05'0 0.0
2018-Jun-15 12:29N 35°06' E 129°05'0 0.0
2018-Jun-15 12:00N 35°06' E 129°05'1 2.9
2018-Jun-15 11:30N 35°05' E 129°06'40010.1
2018-Jun-13 19:46N 31°04' E 122°45'0 0.0
2018-Jun-13 19:28N 31°04' E 122°45'17 2.4
2018-Jun-13 12:24N 31°06' E 122°25'1710.5
2018-Jun-13 10:48N 31°13' E 122°08'414.0
2018-Jun-13 10:30N 31°14' E 122°03'714.6
2018-Jun-13 10:00N 31°16' E 121°55'714.5
2018-Jun-13 09:30N 31°18' E 121°47'3 0.3
2018-Jun-12 22:38N 31°19' E 121°44'211.8
2018-Jun-12 22:28N 31°18' E 121°46'612.1
2018-Jun-12 22:00N 31°16' E 121°52'611.4
2018-Jun-12 21:29N 31°15' E 121°59'5 9.8
2018-Jun-12 21:00N 31°14' E 122°04'6 9.2
2018-Jun-12 20:19N 31°11' E 122°10'310.1
2018-Jun-12 20:00N 31°09' E 122°13'510.8
2018-Jun-12 19:30N 31°06' E 122°19'611.8
2018-Jun-12 19:00N 31°07' E 122°26'3 5.7
2018-Jun-12 18:30N 31°07' E 122°29'511.1
2018-Jun-12 18:00N 31°07' E 122°35'611.5
2018-Jun-12 17:30N 31°07' E 122°42'3 1.4
2018-Jun-12 15:25N 31°08' E 122°45'0 0.1
2018-Jun-12 14:46N 31°08' E 122°45'0 0.0
2018-Jun-12 12:31N 31°08' E 122°45'0 0.1
2018-Jun-12 09:58N 31°08' E 122°45'0 0.1
2018-Jun-12 09:28N 31°08' E 122°45'0 0.0
2018-Jun-12 08:58N 31°08' E 122°45'0 0.0
2018-Jun-12 08:28N 31°08' E 122°45'0 0.1
2018-Jun-12 07:58N 31°08' E 122°46'0 0.1
2018-Jun-12 07:28N 31°08' E 122°46'0 0.0
2018-Jun-12 06:58N 31°08' E 122°46'0 0.1
2018-Jun-12 06:26N 31°08' E 122°46'2 5.7
2018-Jun-12 06:00N 31°08' E 122°48'714.7
2018-Jun-12 05:30N 31°13' E 122°55'4714.2
2018-Jun-12 02:11N 31°44' E 123°37'1814.4
2018-Jun-12 00:57N 31°55' E 123°53'  
Track history (hours):
 
Tides and Currents Weather Stations Pressure Air Temp Water Temp Dewpoint Dewpoint Depression Visibility Wind Speed Wind Dir Waves Ship Positions

Pos Yokohama

Last reported at 2018-Jun-20 16:17 UTC. Time now 2018-Jun-21 04:47 UTC.
Position N 31°15' E 121°57'.

Length 144 m; draft 7.1 m.

Type: Cargo ship. MMSI: 440349000.

Date/timePositionNaut miles runAvg speedWind from/ knotsBaromVisibWave heightAir tempDewpointWater temp
2018-Jun-20 16:17N 31°15' E 121°57'414.9
2018-Jun-20 16:00N 31°16' E 121°52'2 0.2
2018-Jun-20 05:50N 31°16' E 121°54'612.7
2018-Jun-20 05:19N 31°15' E 122°01'1111.4
2018-Jun-20 04:23N 31°10' E 122°12'411.4
2018-Jun-20 04:00N 31°07' E 122°16'  
2018-Jun-15 22:36N 35°03' E 129°07'110.8
2018-Jun-15 22:29N 35°04' E 129°07'2 5.1
2018-Jun-15 21:59N 35°06' E 129°05'0 0.1
2018-Jun-15 21:29N 35°06' E 129°05'0 0.0
2018-Jun-15 20:59N 35°06' E 129°05'0 0.0
2018-Jun-15 20:29N 35°06' E 129°05'0 0.0
2018-Jun-15 19:59N 35°06' E 129°05'0 0.0
2018-Jun-15 19:29N 35°06' E 129°05'0 0.0
2018-Jun-15 18:59N 35°06' E 129°05'0 0.0
2018-Jun-15 18:29N 35°06' E 129°05'0 0.0
2018-Jun-15 17:59N 35°06' E 129°05'0 0.0
2018-Jun-15 17:29N 35°06' E 129°05'0 0.0
2018-Jun-15 16:59N 35°06' E 129°05'0 0.0
2018-Jun-15 16:29N 35°06' E 129°05'0 0.0
2018-Jun-15 15:59N 35°06' E 129°05'0 0.0
2018-Jun-15 15:29N 35°06' E 129°05'0 0.0
2018-Jun-15 14:59N 35°06' E 129°05'0 0.0
2018-Jun-15 14:29N 35°06' E 129°05'0 0.0
2018-Jun-15 13:59N 35°06' E 129°05'0 0.0
2018-Jun-15 13:29N 35°06' E 129°05'0 0.0
2018-Jun-15 12:59N 35°06' E 129°05'0 0.0
2018-Jun-15 12:29N 35°06' E 129°05'0 0.0
2018-Jun-15 12:00N 35°06' E 129°05'1 2.9
2018-Jun-15 11:30N 35°05' E 129°06'40010.1
2018-Jun-13 19:46N 31°04' E 122°45'0 0.0
2018-Jun-13 19:28N 31°04' E 122°45'17 2.4
2018-Jun-13 12:24N 31°06' E 122°25'1710.5
2018-Jun-13 10:48N 31°13' E 122°08'414.0
2018-Jun-13 10:30N 31°14' E 122°03'714.6
2018-Jun-13 10:00N 31°16' E 121°55'714.5
2018-Jun-13 09:30N 31°18' E 121°47'3 0.3
2018-Jun-12 22:38N 31°19' E 121°44'211.8
2018-Jun-12 22:28N 31°18' E 121°46'612.1
2018-Jun-12 22:00N 31°16' E 121°52'611.4
2018-Jun-12 21:29N 31°15' E 121°59'5 9.8
2018-Jun-12 21:00N 31°14' E 122°04'6 9.2
2018-Jun-12 20:19N 31°11' E 122°10'310.1
2018-Jun-12 20:00N 31°09' E 122°13'510.8
2018-Jun-12 19:30N 31°06' E 122°19'611.8
2018-Jun-12 19:00N 31°07' E 122°26'3 5.7
2018-Jun-12 18:30N 31°07' E 122°29'511.1
2018-Jun-12 18:00N 31°07' E 122°35'611.5
2018-Jun-12 17:30N 31°07' E 122°42'3 1.4
2018-Jun-12 15:25N 31°08' E 122°45'0 0.1
2018-Jun-12 14:46N 31°08' E 122°45'0 0.0
2018-Jun-12 12:31N 31°08' E 122°45'0 0.1
2018-Jun-12 09:58N 31°08' E 122°45'0 0.1
2018-Jun-12 09:28N 31°08' E 122°45'0 0.0
2018-Jun-12 08:58N 31°08' E 122°45'0 0.0
2018-Jun-12 08:28N 31°08' E 122°45'0 0.1
2018-Jun-12 07:58N 31°08' E 122°46'0 0.1
2018-Jun-12 07:28N 31°08' E 122°46'0 0.0
2018-Jun-12 06:58N 31°08' E 122°46'0 0.1
2018-Jun-12 06:26N 31°08' E 122°46'2 5.7
2018-Jun-12 06:00N 31°08' E 122°48'714.7
2018-Jun-12 05:30N 31°13' E 122°55'4714.2
2018-Jun-12 02:11N 31°44' E 123°37'1814.4
2018-Jun-12 00:57N 31°55' E 123°53'  

Dump ship's entire track history